Time,TemperatureF,DewpointF,PressureIn,WindDirection,WindDirectionDegrees,WindSpeedMPH,WindSpeedGustMPH,Humidity,HourlyPrecipIn,Conditions,Clouds,dailyrainin,SoftwareType,DateUTC
2013-06-04 00:00:00,54.0,47.0,29.26,SSW,202,1.0,5.0,77,0.00,,,0.00,VWS V14.01,2013-06-04 07:00:00,
2013-06-04 00:02:00,53.1,46.1,29.42,NNW,348,0.0,9.0,77,0.00,,,0.00,VWS V14.01,2013-06-04 07:02:00,
2013-06-04 00:07:00,53.0,46.0,29.42,NNW,348,0.0,9.0,77,0.00,,,0.00,VWS V14.01,2013-06-04 07:07:00,
2013-06-04 00:12:00,52.8,45.8,29.42,NNW,348,0.0,9.0,77,0.00,,,0.00,VWS V14.01,2013-06-04 07:12:00,
2013-06-04 00:17:00,52.6,45.6,29.42,NNW,348,0.0,9.0,77,0.00,,,0.00,VWS V14.01,2013-06-04 07:17:00,
2013-06-04 00:22:00,52.5,45.8,29.42,NNW,348,0.0,9.0,78,0.00,,,0.00,VWS V14.01,2013-06-04 07:22:00,
2013-06-04 00:27:00,52.4,45.8,29.42,NNW,348,0.0,9.0,78,0.00,,,0.00,VWS V14.01,2013-06-04 07:27:00,
2013-06-04 00:30:00,53.2,46.5,29.26,SSW,202,2.0,5.0,78,0.00,,,0.00,VWS V14.01,2013-06-04 07:30:00,
2013-06-04 00:32:00,52.3,45.7,29.42,NNW,348,0.0,9.0,78,0.00,,,0.00,VWS V14.01,2013-06-04 07:32:00,
2013-06-04 00:37:00,52.3,46.0,29.42,NNW,348,0.0,9.0,79,0.00,,,0.00,VWS V14.01,2013-06-04 07:37:00,
2013-06-04 00:42:00,52.1,45.8,29.41,NNW,348,0.0,9.0,79,0.00,,,0.00,VWS V14.01,2013-06-04 07:42:00,
2013-06-04 00:47:00,52.0,45.7,29.42,NNW,348,0.0,9.0,79,0.00,,,0.00,VWS V14.01,2013-06-04 07:47:00,
2013-06-04 00:52:00,51.8,45.5,29.42,NNW,348,0.0,9.0,79,0.00,,,0.00,VWS V14.01,2013-06-04 07:52:00,
2013-06-04 00:57:00,51.8,45.5,29.42,NNW,348,0.0,9.0,79,0.00,,,0.00,VWS V14.01,2013-06-04 07:57:00,
2013-06-04 01:00:00,53.2,46.5,29.25,SSW,202,1.0,4.0,78,0.00,,,0.00,VWS V14.01,2013-06-04 08:00:00,
2013-06-04 01:02:00,51.8,45.8,29.42,NNW,348,0.0,9.0,80,0.00,,,0.00,VWS V14.01,2013-06-04 08:02:00,
2013-06-04 01:07:00,51.7,45.7,29.42,NNW,348,0.0,9.0,80,0.00,,,0.00,VWS V14.01,2013-06-04 08:07:00,
2013-06-04 01:12:00,51.7,45.7,29.41,NNW,348,1.0,9.0,80,0.00,,,0.00,VWS V14.01,2013-06-04 08:12:00,
2013-06-04 01:17:00,51.6,46.0,29.42,NNW,348,2.0,9.0,81,0.00,,,0.00,VWS V14.01,2013-06-04 08:17:00,
2013-06-04 01:22:00,51.7,46.1,29.42,NNW,348,1.0,9.0,81,0.00,,,0.00,VWS V14.01,2013-06-04 08:22:00,
2013-06-04 01:27:00,51.7,46.1,29.42,NNW,348,0.0,9.0,81,0.00,,,0.00,VWS V14.01,2013-06-04 08:27:00,
2013-06-04 01:30:00,53.4,46.7,29.26,SSW,202,0.0,3.0,78,0.00,,,0.00,VWS V14.01,2013-06-04 08:30:00,
2013-06-04 01:32:00,51.7,46.1,29.41,NNW,348,1.0,9.0,81,0.00,,,0.00,VWS V14.01,2013-06-04 08:32:00,
2013-06-04 01:37:00,51.6,46.0,29.42,NNW,348,1.0,9.0,81,0.00,,,0.00,VWS V14.01,2013-06-04 08:37:00,
2013-06-04 01:42:00,51.6,46.0,29.42,NNW,348,0.0,9.0,81,0.00,,,0.00,VWS V14.01,2013-06-04 08:42:00,
2013-06-04 01:47:00,51.6,46.0,29.42,NNW,348,1.0,9.0,81,0.00,,,0.00,VWS V14.01,2013-06-04 08:47:00,
2013-06-04 01:52:00,51.6,46.0,29.41,NNW,348,0.0,9.0,81,0.00,,,0.00,VWS V14.01,2013-06-04 08:52:00,
2013-06-04 01:57:00,51.6,46.0,29.41,NNW,348,0.0,9.0,81,0.00,,,0.00,VWS V14.01,2013-06-04 08:57:00,
2013-06-04 02:00:00,53.1,46.4,29.26,SSW,202,0.0,1.0,78,0.00,,,0.00,VWS V14.01,2013-06-04 09:00:00,
2013-06-04 02:02:00,51.5,45.9,29.42,NNW,348,0.0,9.0,81,0.00,,,0.00,VWS V14.01,2013-06-04 09:02:00,
2013-06-04 02:07:00,51.5,46.2,29.41,NNW,348,0.0,9.0,82,0.00,,,0.00,VWS V14.01,2013-06-04 09:07:00,
2013-06-04 02:12:00,51.5,46.2,29.41,NNW,348,0.0,9.0,82,0.00,,,0.00,VWS V14.01,2013-06-04 09:12:00,
2013-06-04 02:17:00,51.4,46.1,29.41,NNW,348,0.0,9.0,82,0.00,,,0.00,VWS V14.01,2013-06-04 09:17:00,
2013-06-04 02:22:00,51.4,46.1,29.41,NNW,348,0.0,9.0,82,0.00,,,0.00,VWS V14.01,2013-06-04 09:22:00,
2013-06-04 02:27:00,51.3,46.0,29.42,NNW,348,0.0,9.0,82,0.00,,,0.00,VWS V14.01,2013-06-04 09:27:00,
2013-06-04 02:30:00,52.5,45.8,29.26,SSW,202,0.0,0.0,78,0.00,,,0.00,VWS V14.01,2013-06-04 09:30:00,
2013-06-04 02:32:00,51.2,45.9,29.41,NNW,348,0.0,9.0,82,0.00,,,0.00,VWS V14.01,2013-06-04 09:32:00,
2013-06-04 02:37:00,51.1,45.8,29.41,NNW,348,0.0,9.0,82,0.00,,,0.00,VWS V14.01,2013-06-04 09:37:00,
2013-06-04 02:42:00,51.0,45.7,29.41,NNW,348,0.0,9.0,82,0.00,,,0.00,VWS V14.01,2013-06-04 09:42:00,
2013-06-04 02:47:00,51.0,45.7,29.41,NNW,348,0.0,9.0,82,0.00,,,0.00,VWS V14.01,2013-06-04 09:47:00,
2013-06-04 02:52:00,50.8,45.5,29.41,NNW,348,0.0,9.0,82,0.00,,,0.00,VWS V14.01,2013-06-04 09:52:00,
2013-06-04 02:57:00,50.7,45.4,29.41,NNW,348,0.0,9.0,82,0.00,,,0.00,VWS V14.01,2013-06-04 09:57:00,
2013-06-04 03:00:00,52.2,45.9,29.26,SSW,202,0.0,1.0,79,0.00,,,0.00,VWS V14.01,2013-06-04 10:00:00,
2013-06-04 03:02:00,50.6,45.6,29.42,NNW,348,0.0,9.0,83,0.00,,,0.00,VWS V14.01,2013-06-04 10:02:00,
2013-06-04 03:07:00,50.5,45.2,29.42,NNW,348,0.0,9.0,82,0.00,,,0.00,VWS V14.01,2013-06-04 10:07:00,
2013-06-04 03:12:00,50.6,45.6,29.42,NNW,348,0.0,9.0,83,0.00,,,0.00,VWS V14.01,2013-06-04 10:12:00,
2013-06-04 03:17:00,50.6,45.6,29.42,NNW,348,0.0,9.0,83,0.00,,,0.00,VWS V14.01,2013-06-04 10:17:00,
2013-06-04 03:22:00,50.5,45.5,29.42,NNW,348,0.0,9.0,83,0.00,,,0.00,VWS V14.01,2013-06-04 10:22:00,
2013-06-04 03:27:00,50.4,45.4,29.42,NNW,348,0.0,9.0,83,0.00,,,0.00,VWS V14.01,2013-06-04 10:27:00,
2013-06-04 03:30:00,51.4,45.8,29.27,SSW,202,0.0,1.0,81,0.00,,,0.00,VWS V14.01,2013-06-04 10:30:00,
2013-06-04 03:32:00,50.4,45.8,29.42,NNW,348,0.0,9.0,84,0.00,,,0.00,VWS V14.01,2013-06-04 10:32:00,
2013-06-04 03:37:00,50.4,45.8,29.42,NNW,348,0.0,9.0,84,0.00,,,0.00,VWS V14.01,2013-06-04 10:37:00,
2013-06-04 03:42:00,50.4,45.8,29.42,NNW,348,0.0,9.0,84,0.00,,,0.00,VWS V14.01,2013-06-04 10:42:00,
2013-06-04 03:47:00,50.5,45.8,29.42,NNW,348,0.0,9.0,84,0.00,,,0.00,VWS V14.01,2013-06-04 10:47:00,
2013-06-04 03:52:00,50.5,45.8,29.42,NNW,348,0.0,9.0,84,0.00,,,0.00,VWS V14.01,2013-06-04 10:52:00,
2013-06-04 03:57:00,50.6,46.0,29.42,NNW,348,0.0,9.0,84,0.00,,,0.00,VWS V14.01,2013-06-04 10:57:00,
2013-06-04 04:00:00,50.8,45.2,29.27,SSW,202,0.0,0.0,81,0.00,,,0.00,VWS V14.01,2013-06-04 11:00:00,
2013-06-04 04:02:00,50.6,46.0,29.42,NNW,348,0.0,9.0,84,0.00,,,0.00,VWS V14.01,2013-06-04 11:02:00,
2013-06-04 04:07:00,50.5,45.8,29.42,NNW,348,0.0,9.0,84,0.00,,,0.00,VWS V14.01,2013-06-04 11:07:00,
2013-06-04 04:12:00,50.6,46.0,29.42,NNW,348,0.0,9.0,84,0.00,,,0.00,VWS V14.01,2013-06-04 11:12:00,
2013-06-04 04:17:00,50.7,46.0,29.42,NNW,348,0.0,9.0,84,0.00,,,0.00,VWS V14.01,2013-06-04 11:17:00,
2013-06-04 04:22:00,50.7,46.0,29.42,NNW,348,0.0,9.0,84,0.00,,,0.00,VWS V14.01,2013-06-04 11:22:00,
2013-06-04 04:27:00,50.8,46.2,29.42,NNW,348,0.0,9.0,84,0.00,,,0.00,VWS V14.01,2013-06-04 11:27:00,
2013-06-04 04:30:00,50.5,45.2,29.28,SSW,202,0.0,0.0,82,0.00,,,0.00,VWS V14.01,2013-06-04 11:30:00,
2013-06-04 04:32:00,50.8,46.2,29.42,NNW,348,0.0,9.0,84,0.00,,,0.00,VWS V14.01,2013-06-04 11:32:00,
2013-06-04 04:37:00,51.0,46.7,29.42,NNW,348,0.0,9.0,85,0.00,,,0.00,VWS V14.01,2013-06-04 11:37:00,
2013-06-04 04:42:00,51.0,46.7,29.42,NNW,348,0.0,9.0,85,0.00,,,0.00,VWS V14.01,2013-06-04 11:42:00,
2013-06-04 04:47:00,51.2,46.5,29.42,NNW,348,0.0,9.0,84,0.00,,,0.00,VWS V14.01,2013-06-04 11:47:00,
2013-06-04 04:52:00,51.3,47.0,29.41,NNW,348,0.0,9.0,85,0.00,,,0.00,VWS V14.01,2013-06-04 11:52:00,
2013-06-04 04:57:00,51.4,46.7,29.42,NNW,348,0.0,9.0,84,0.00,,,0.00,VWS V14.01,2013-06-04 11:57:00,
2013-06-04 05:00:00,49.9,44.3,29.28,SSW,202,0.0,0.0,81,0.00,,,0.00,VWS V14.01,2013-06-04 12:00:00,
2013-06-04 05:02:00,51.5,46.8,29.42,NNW,348,0.0,9.0,84,0.00,,,0.00,VWS V14.01,2013-06-04 12:02:00,
2013-06-04 05:07:00,51.3,46.6,29.42,NNW,348,0.0,9.0,84,0.00,,,0.00,VWS V14.01,2013-06-04 12:07:00,
2013-06-04 05:12:00,51.4,46.7,29.42,NNW,348,0.0,9.0,84,0.00,,,0.00,VWS V14.01,2013-06-04 12:12:00,
2013-06-04 05:17:00,51.5,46.8,29.42,NNW,348,0.0,9.0,84,0.00,,,0.00,VWS V14.01,2013-06-04 12:17:00,
2013-06-04 05:22:00,51.5,46.8,29.42,NNW,348,0.0,9.0,84,0.00,,,0.00,VWS V14.01,2013-06-04 12:22:00,
2013-06-04 05:27:00,51.5,46.8,29.42,NNW,348,0.0,9.0,84,0.00,,,0.00,VWS V14.01,2013-06-04 12:27:00,
2013-06-04 05:30:00,49.6,44.7,29.28,SSW,202,0.0,1.0,83,0.00,,,0.00,VWS V14.01,2013-06-04 12:30:00,
2013-06-04 05:32:00,51.7,47.0,29.43,NNW,348,0.0,9.0,84,0.00,,,0.00,VWS V14.01,2013-06-04 12:32:00,
2013-06-04 05:37:00,51.8,47.1,29.43,NNW,348,0.0,9.0,84,0.00,,,0.00,VWS V14.01,2013-06-04 12:37:00,
2013-06-04 05:42:00,51.9,46.9,29.44,NNW,348,0.0,9.0,83,0.00,,,0.00,VWS V14.01,2013-06-04 12:42:00,
2013-06-04 05:47:00,51.8,46.8,29.44,NNW,348,0.0,9.0,83,0.00,,,0.00,VWS V14.01,2013-06-04 12:47:00,
2013-06-04 05:52:00,51.9,46.9,29.44,NNW,348,0.0,9.0,83,0.00,,,0.00,VWS V14.01,2013-06-04 12:52:00,
2013-06-04 05:57:00,52.0,47.0,29.44,NNW,348,0.0,9.0,83,0.00,,,0.00,VWS V14.01,2013-06-04 12:57:00,
2013-06-04 06:00:00,49.6,44.7,29.29,SSW,202,0.0,0.0,83,0.00,,,0.00,VWS V14.01,2013-06-04 13:00:00,
2013-06-04 06:02:00,52.0,47.0,29.44,NNW,348,0.0,9.0,83,0.00,,,0.00,VWS V14.01,2013-06-04 13:02:00,
2013-06-04 06:07:00,52.1,47.1,29.44,NNW,348,0.0,9.0,83,0.00,,,0.00,VWS V14.01,2013-06-04 13:07:00,
2013-06-04 06:12:00,52.1,47.1,29.44,NNW,348,0.0,9.0,83,0.00,,,0.00,VWS V14.01,2013-06-04 13:12:00,
2013-06-04 06:17:00,52.1,47.1,29.45,NNW,348,0.0,9.0,83,0.00,,,0.00,VWS V14.01,2013-06-04 13:17:00,
2013-06-04 06:22:00,52.2,47.2,29.45,NNW,348,0.0,9.0,83,0.00,,,0.00,VWS V14.01,2013-06-04 13:22:00,
2013-06-04 06:27:00,52.3,47.3,29.45,NNW,348,0.0,9.0,83,0.00,,,0.00,VWS V14.01,2013-06-04 13:27:00,
2013-06-04 06:30:00,49.3,44.7,29.29,SSW,202,0.0,2.0,84,0.00,,,0.00,VWS V14.01,2013-06-04 13:30:00,
2013-06-04 06:32:00,52.5,47.5,29.45,NNW,348,0.0,9.0,83,0.00,,,0.00,VWS V14.01,2013-06-04 13:32:00,
2013-06-04 06:37:00,52.5,47.5,29.45,NNW,348,0.0,9.0,83,0.00,,,0.00,VWS V14.01,2013-06-04 13:37:00,
2013-06-04 06:42:00,52.5,47.2,29.45,NNW,348,0.0,9.0,82,0.00,,,0.00,VWS V14.01,2013-06-04 13:42:00,
2013-06-04 06:47:00,52.6,47.3,29.45,NNW,348,0.0,9.0,82,0.00,,,0.00,VWS V14.01,2013-06-04 13:47:00,
2013-06-04 06:52:00,52.6,47.3,29.45,NNW,348,0.0,9.0,82,0.00,,,0.00,VWS V14.01,2013-06-04 13:52:00,
2013-06-04 06:57:00,52.9,47.6,29.45,NNW,348,0.0,9.0,82,0.00,,,0.00,VWS V14.01,2013-06-04 13:57:00,
2013-06-04 07:00:00,49.0,44.4,29.30,SSW,202,0.0,1.0,84,0.00,,,0.00,VWS V14.01,2013-06-04 14:00:00,
2013-06-04 07:02:00,52.9,47.6,29.45,NNW,348,0.0,9.0,82,0.00,,,0.00,VWS V14.01,2013-06-04 14:02:00,
2013-06-04 07:08:00,53.2,47.9,29.45,NNW,348,0.0,9.0,82,0.00,,,0.00,VWS V14.01,2013-06-04 14:08:00,
2013-06-04 07:13:00,53.5,48.2,29.45,NNW,348,0.0,9.0,82,0.00,,,0.00,VWS V14.01,2013-06-04 14:13:00,
2013-06-04 07:18:00,53.7,48.3,29.46,NNW,348,0.0,9.0,82,0.00,,,0.00,VWS V14.01,2013-06-04 14:18:00,
2013-06-04 07:23:00,54.0,48.3,29.46,NNW,348,0.0,9.0,81,0.00,,,0.00,VWS V14.01,2013-06-04 14:23:00,
2013-06-04 07:28:00,54.2,48.5,29.45,NNW,348,0.0,9.0,81,0.00,,,0.00,VWS V14.01,2013-06-04 14:28:00,
2013-06-04 07:30:00,48.5,44.2,29.30,SSW,202,0.0,0.0,85,0.00,,,0.00,VWS V14.01,2013-06-04 14:30:00,
2013-06-04 07:33:00,54.5,48.8,29.46,NNW,348,0.0,9.0,81,0.00,,,0.00,VWS V14.01,2013-06-04 14:33:00,
2013-06-04 07:38:00,54.6,48.6,29.46,NNW,348,0.0,9.0,80,0.00,,,0.00,VWS V14.01,2013-06-04 14:38:00,
2013-06-04 07:43:00,54.8,48.8,29.46,NNW,348,0.0,9.0,80,0.00,,,0.00,VWS V14.01,2013-06-04 14:43:00,
2013-06-04 07:53:00,53.3,47.6,29.45,NNW,338,0.0,0.0,81,0.00,,,0.00,VWS V14.01,2013-06-04 14:53:00,
2013-06-04 07:58:00,55.7,49.0,29.47,NNW,348,0.0,0.0,78,0.00,,,0.00,VWS V14.01,2013-06-04 14:58:00,
2013-06-04 08:00:00,49.4,45.1,29.31,SSW,202,0.0,1.0,85,0.00,,,0.00,VWS V14.01,2013-06-04 15:00:00,
2013-06-04 08:03:00,56.0,48.9,29.47,NNW,348,0.0,0.0,77,0.00,,,0.00,VWS V14.01,2013-06-04 15:03:00,
2013-06-04 08:08:00,56.1,48.7,29.47,NNW,348,0.0,5.0,76,0.00,,,0.00,VWS V14.01,2013-06-04 15:08:00,
2013-06-04 08:13:00,56.5,49.0,29.48,NNW,348,0.0,5.0,76,0.00,,,0.00,VWS V14.01,2013-06-04 15:13:00,
2013-06-04 08:18:00,56.9,49.1,29.48,NNW,348,0.0,5.0,75,0.00,,,0.00,VWS V14.01,2013-06-04 15:18:00,
2013-06-04 08:23:00,57.4,49.5,29.47,NNW,348,2.0,5.0,75,0.00,,,0.00,VWS V14.01,2013-06-04 15:23:00,
2013-06-04 08:28:00,57.9,49.7,29.48,NNW,348,2.0,5.0,74,0.00,,,0.00,VWS V14.01,2013-06-04 15:28:00,
2013-06-04 08:30:00,52.3,46.3,29.32,SSW,202,0.0,0.0,80,0.00,,,0.00,VWS V14.01,2013-06-04 15:30:00,
2013-06-04 08:33:00,58.7,50.1,29.48,NNW,348,0.0,5.0,73,0.00,,,0.00,VWS V14.01,2013-06-04 15:33:00,
2013-06-04 08:38:00,59.5,50.1,29.48,NNW,348,2.0,5.0,71,0.00,,,0.00,VWS V14.01,2013-06-04 15:38:00,
2013-06-04 08:43:00,59.8,49.6,29.48,NNW,348,0.0,5.0,69,0.00,,,0.00,VWS V14.01,2013-06-04 15:43:00,
2013-06-04 08:48:00,60.2,49.6,29.48,NNW,348,0.0,5.0,68,0.00,,,0.00,VWS V14.01,2013-06-04 15:48:00,
2013-06-04 08:53:00,59.8,49.2,29.48,NNW,348,0.0,5.0,68,0.00,,,0.00,VWS V14.01,2013-06-04 15:53:00,
2013-06-04 08:58:00,60.0,49.8,29.48,NNW,348,0.0,5.0,69,0.00,,,0.00,VWS V14.01,2013-06-04 15:58:00,
2013-06-04 09:00:00,53.6,46.6,29.33,SSW,202,0.0,0.0,77,0.00,,,0.00,VWS V14.01,2013-06-04 16:00:00,
2013-06-04 09:04:00,60.6,49.6,29.48,NNW,348,0.0,5.0,67,0.00,,,0.00,VWS V14.01,2013-06-04 16:04:00,
2013-06-04 09:09:00,60.7,49.3,29.48,NNW,348,0.0,5.0,66,0.00,,,0.00,VWS V14.01,2013-06-04 16:09:00,
2013-06-04 09:14:00,60.8,49.8,29.48,NNW,348,0.0,5.0,67,0.00,,,0.00,VWS V14.01,2013-06-04 16:14:00,
2013-06-04 09:19:00,60.4,49.0,29.48,NNW,348,0.0,5.0,66,0.00,,,0.00,VWS V14.01,2013-06-04 16:19:00,
2013-06-04 09:24:00,60.6,49.6,29.48,NNW,348,0.0,5.0,67,0.00,,,0.00,VWS V14.01,2013-06-04 16:24:00,
2013-06-04 09:29:00,61.1,50.1,29.49,NNW,348,0.0,5.0,67,0.00,,,0.00,VWS V14.01,2013-06-04 16:29:00,
2013-06-04 09:30:00,56.7,47.4,29.33,SSW,202,0.0,0.0,71,0.00,,,0.00,VWS V14.01,2013-06-04 16:30:00,
2013-06-04 09:34:00,61.7,49.8,29.49,NNW,348,1.0,5.0,65,0.00,,,0.00,VWS V14.01,2013-06-04 16:34:00,
2013-06-04 09:39:00,61.8,49.5,29.49,NNW,348,0.0,5.0,64,0.00,,,0.00,VWS V14.01,2013-06-04 16:39:00,
2013-06-04 09:44:00,61.7,49.8,29.48,NNW,348,0.0,5.0,65,0.00,,,0.00,VWS V14.01,2013-06-04 16:44:00,
2013-06-04 09:49:00,62.0,49.7,29.48,NNW,348,4.0,5.0,64,0.00,,,0.00,VWS V14.01,2013-06-04 16:49:00,
2013-06-04 09:54:00,62.3,50.0,29.49,NNW,348,2.0,5.0,64,0.00,,,0.00,VWS V14.01,2013-06-04 16:54:00,
2013-06-04 09:59:00,62.7,50.4,29.48,NNW,348,2.0,5.0,64,0.00,,,0.00,VWS V14.01,2013-06-04 16:59:00,
2013-06-04 10:00:00,59.9,48.1,29.34,SSW,202,0.0,0.0,65,0.00,,,0.00,VWS V14.01,2013-06-04 17:00:00,
2013-06-04 10:04:00,62.9,50.1,29.48,NNW,348,1.0,5.0,63,0.00,,,0.00,VWS V14.01,2013-06-04 17:04:00,
2013-06-04 10:09:00,63.0,50.2,29.49,NNW,348,3.0,5.0,63,0.00,,,0.00,VWS V14.01,2013-06-04 17:09:00,
2013-06-04 10:14:00,62.9,50.1,29.49,NNW,348,2.0,5.0,63,0.00,,,0.00,VWS V14.01,2013-06-04 17:14:00,
2013-06-04 10:19:00,62.5,49.8,29.49,NNW,348,3.0,5.0,63,0.00,,,0.00,VWS V14.01,2013-06-04 17:19:00,
2013-06-04 10:24:00,62.6,49.8,29.49,NNW,348,3.0,5.0,63,0.00,,,0.00,VWS V14.01,2013-06-04 17:24:00,
2013-06-04 10:29:00,62.9,50.1,29.49,NNW,348,4.0,5.0,63,0.00,,,0.00,VWS V14.01,2013-06-04 17:29:00,
2013-06-04 10:30:00,62.6,48.5,29.34,SSW,202,0.0,0.0,60,0.00,,,0.00,VWS V14.01,2013-06-04 17:30:00,
2013-06-04 10:34:00,63.2,50.0,29.50,North,352,4.0,5.0,62,0.00,,,0.00,VWS V14.01,2013-06-04 17:34:00,
2013-06-04 10:39:00,63.8,50.1,29.49,North,352,3.0,6.0,61,0.00,,,0.00,VWS V14.01,2013-06-04 17:39:00,
2013-06-04 10:44:00,63.9,49.8,29.49,North,350,2.0,6.0,60,0.00,,,0.00,VWS V14.01,2013-06-04 17:44:00,
2013-06-04 10:49:00,63.7,49.6,29.50,NNW,348,4.0,6.0,60,0.00,,,0.00,VWS V14.01,2013-06-04 17:49:00,
2013-06-04 10:54:00,63.6,49.5,29.50,NNW,341,6.0,12.0,60,0.00,,,0.00,VWS V14.01,2013-06-04 17:54:00,
2013-06-04 10:59:00,63.6,49.9,29.50,NNW,335,4.0,12.0,61,0.00,,,0.00,VWS V14.01,2013-06-04 17:59:00,
2013-06-04 11:00:00,64.7,49.1,29.35,SSW,202,0.0,0.0,57,0.00,,,0.00,VWS V14.01,2013-06-04 18:00:00,
2013-06-04 11:04:00,63.7,49.6,29.50,NNW,340,3.0,12.0,60,0.00,,,0.00,VWS V14.01,2013-06-04 18:04:00,
2013-06-04 11:09:00,64.0,49.8,29.49,NNW,338,2.0,12.0,60,0.00,,,0.00,VWS V14.01,2013-06-04 18:09:00,
2013-06-04 11:14:00,64.0,49.8,29.49,NNW,343,4.0,12.0,60,0.00,,,0.00,VWS V14.01,2013-06-04 18:14:00,
2013-06-04 11:19:00,64.0,49.8,29.50,NNW,342,3.0,12.0,60,0.00,,,0.00,VWS V14.01,2013-06-04 18:19:00,
2013-06-04 11:24:00,64.2,49.6,29.50,NNW,341,3.0,12.0,59,0.00,,,0.00,VWS V14.01,2013-06-04 18:24:00,
2013-06-04 11:29:00,64.1,50.0,29.50,NNW,340,1.0,12.0,60,0.00,,,0.00,VWS V14.01,2013-06-04 18:29:00,
2013-06-04 11:30:00,65.2,49.6,29.35,NW,315,3.0,8.0,57,0.00,,,0.00,VWS V14.01,2013-06-04 18:30:00,
2013-06-04 11:34:00,64.5,49.9,29.50,NNW,342,4.0,12.0,59,0.00,,,0.00,VWS V14.01,2013-06-04 18:34:00,
2013-06-04 11:39:00,64.5,49.9,29.50,NNW,334,2.0,12.0,59,0.00,,,0.00,VWS V14.01,2013-06-04 18:39:00,
2013-06-04 11:44:00,64.8,50.2,29.50,NNW,336,5.0,12.0,59,0.00,,,0.00,VWS V14.01,2013-06-04 18:44:00,
2013-06-04 11:49:00,64.8,49.7,29.50,NNW,339,7.0,12.0,58,0.00,,,0.00,VWS V14.01,2013-06-04 18:49:00,
2013-06-04 11:54:00,64.8,49.2,29.50,NNW,334,4.0,12.0,57,0.00,,,0.00,VWS V14.01,2013-06-04 18:54:00,
2013-06-04 11:59:00,64.8,49.7,29.50,NNW,334,5.0,12.0,58,0.00,,,0.00,VWS V14.01,2013-06-04 18:59:00,
2013-06-04 12:00:00,64.4,48.4,29.36,NNW,338,3.0,8.0,56,0.00,,,0.00,VWS V14.01,2013-06-04 19:00:00,
2013-06-04 12:04:00,65.3,49.7,29.50,NNW,345,5.0,12.0,57,0.00,,,0.00,VWS V14.01,2013-06-04 19:04:00,
2013-06-04 12:09:00,65.1,49.0,29.50,NNW,338,6.0,12.0,56,0.00,,,0.00,VWS V14.01,2013-06-04 19:09:00,
2013-06-04 12:14:00,64.9,49.3,29.50,NNW,328,6.0,12.0,57,0.00,,,0.00,VWS V14.01,2013-06-04 19:14:00,
2013-06-04 12:19:00,64.6,49.0,29.50,NNW,338,4.0,12.0,57,0.00,,,0.00,VWS V14.01,2013-06-04 19:19:00,
2013-06-04 12:24:00,64.4,48.8,29.50,NNW,338,6.0,12.0,57,0.00,,,0.00,VWS V14.01,2013-06-04 19:24:00,
2013-06-04 12:29:00,63.7,49.1,29.49,NNW,341,5.0,12.0,59,0.00,,,0.00,VWS V14.01,2013-06-04 19:29:00,
2013-06-04 12:30:00,64.4,48.8,29.37,NNW,338,4.0,8.0,57,0.00,,,0.00,VWS V14.01,2013-06-04 19:30:00,
2013-06-04 12:34:00,63.7,49.1,29.50,NNW,336,8.0,12.0,59,0.00,,,0.00,VWS V14.01,2013-06-04 19:34:00,
2013-06-04 12:39:00,63.5,48.5,29.50,North,350,4.0,12.0,58,0.00,,,0.00,VWS V14.01,2013-06-04 19:39:00,
2013-06-04 12:44:00,63.3,48.7,29.50,NNW,327,6.0,12.0,59,0.00,,,0.00,VWS V14.01,2013-06-04 19:44:00,
2013-06-04 12:49:00,63.6,49.0,29.50,NNW,332,6.0,12.0,59,0.00,,,0.00,VWS V14.01,2013-06-04 19:49:00,
2013-06-04 12:54:00,63.7,49.1,29.50,NNW,343,3.0,12.0,59,0.00,,,0.00,VWS V14.01,2013-06-04 19:54:00,
2013-06-04 12:59:00,63.9,48.8,29.50,NNW,332,7.0,12.0,58,0.00,,,0.00,VWS V14.01,2013-06-04 19:59:00,
2013-06-04 13:00:00,64.6,48.6,29.37,NNW,338,4.0,8.0,56,0.00,,,0.00,VWS V14.01,2013-06-04 20:00:00,
2013-06-04 13:04:00,64.0,48.9,29.50,NW,325,7.0,12.0,58,0.00,,,0.00,VWS V14.01,2013-06-04 20:04:00,
2013-06-04 13:09:00,64.1,49.0,29.50,NNW,333,6.0,12.0,58,0.00,,,0.00,VWS V14.01,2013-06-04 20:09:00,
2013-06-04 13:14:00,64.2,49.1,29.50,NNW,337,6.0,12.0,58,0.00,,,0.00,VWS V14.01,2013-06-04 20:14:00,
2013-06-04 13:19:00,64.0,48.9,29.50,NNW,329,6.0,12.0,58,0.00,,,0.00,VWS V14.01,2013-06-04 20:19:00,
2013-06-04 13:24:00,63.7,48.7,29.50,NNW,327,4.0,12.0,58,0.00,,,0.00,VWS V14.01,2013-06-04 20:24:00,
2013-06-04 13:29:00,63.9,48.8,29.50,NNW,332,6.0,12.0,58,0.00,,,0.00,VWS V14.01,2013-06-04 20:29:00,
2013-06-04 13:30:00,64.7,48.7,29.37,NNW,338,5.0,9.0,56,0.00,,,0.00,VWS V14.01,2013-06-04 20:30:00,
2013-06-04 13:34:00,64.2,49.1,29.50,NNW,334,7.0,12.0,58,0.00,,,0.00,VWS V14.01,2013-06-04 20:34:00,
2013-06-04 13:39:00,64.6,49.5,29.50,NNW,337,9.0,12.0,58,0.00,,,0.00,VWS V14.01,2013-06-04 20:39:00,
2013-06-04 13:44:00,64.9,49.3,29.50,NNW,337,7.0,12.0,57,0.00,,,0.00,VWS V14.01,2013-06-04 20:44:00,
2013-06-04 13:49:00,64.5,49.0,29.50,NNW,328,4.0,12.0,57,0.00,,,0.00,VWS V14.01,2013-06-04 20:49:00,
2013-06-04 13:54:00,64.6,49.0,29.50,NNW,331,5.0,12.0,57,0.00,,,0.00,VWS V14.01,2013-06-04 20:54:00,
2013-06-04 13:59:00,64.8,49.7,29.50,NNW,330,4.0,12.0,58,0.00,,,0.00,VWS V14.01,2013-06-04 20:59:00,
2013-06-04 14:00:00,65.0,48.9,29.38,NNW,338,5.0,9.0,56,0.00,,,0.00,VWS V14.01,2013-06-04 21:00:00,
2013-06-04 14:04:00,65.0,49.4,29.50,NNW,338,5.0,12.0,57,0.00,,,0.00,VWS V14.01,2013-06-04 21:04:00,
2013-06-04 14:09:00,65.3,49.2,29.50,NNW,337,6.0,12.0,56,0.00,,,0.00,VWS V14.01,2013-06-04 21:09:00,
2013-06-04 14:14:00,65.5,49.4,29.50,NNW,331,4.0,12.0,56,0.00,,,0.00,VWS V14.01,2013-06-04 21:14:00,
2013-06-04 14:19:00,65.6,49.5,29.50,NNW,332,7.0,12.0,56,0.00,,,0.00,VWS V14.01,2013-06-04 21:19:00,
2013-06-04 14:24:00,65.7,49.6,29.50,NNW,331,7.0,12.0,56,0.00,,,0.00,VWS V14.01,2013-06-04 21:24:00,
2013-06-04 14:29:00,65.5,49.4,29.50,NNW,330,6.0,12.0,56,0.00,,,0.00,VWS V14.01,2013-06-04 21:29:00,
2013-06-04 14:30:00,66.2,49.1,29.38,NNW,338,4.0,9.0,54,0.00,,,0.00,VWS V14.01,2013-06-04 21:30:00,
2013-06-04 14:34:00,65.4,49.3,29.50,NNW,335,4.0,12.0,56,0.00,,,0.00,VWS V14.01,2013-06-04 21:34:00,
2013-06-04 14:39:00,65.5,49.4,29.50,NNW,339,4.0,12.0,56,0.00,,,0.00,VWS V14.01,2013-06-04 21:39:00,
2013-06-04 14:44:00,65.2,49.1,29.50,NNW,330,5.0,12.0,56,0.00,,,0.00,VWS V14.01,2013-06-04 21:44:00,
2013-06-04 14:49:00,64.7,49.1,29.50,NNW,334,7.0,12.0,57,0.00,,,0.00,VWS V14.01,2013-06-04 21:49:00,
2013-06-04 14:54:00,64.9,49.3,29.50,NNW,328,5.0,12.0,57,0.00,,,0.00,VWS V14.01,2013-06-04 21:54:00,
2013-06-04 14:59:00,64.7,49.6,29.50,NNW,335,5.0,12.0,58,0.00,,,0.00,VWS V14.01,2013-06-04 21:59:00,
2013-06-04 15:00:00,66.8,49.1,29.38,NNW,338,4.0,9.0,53,0.00,,,0.00,VWS V14.01,2013-06-04 22:00:00,
2013-06-04 15:04:00,64.9,49.8,29.50,NNW,342,5.0,12.0,58,0.00,,,0.00,VWS V14.01,2013-06-04 22:04:00,
2013-06-04 15:09:00,64.9,49.3,29.50,NNW,337,5.0,12.0,57,0.00,,,0.00,VWS V14.01,2013-06-04 22:09:00,
2013-06-04 15:14:00,64.8,49.2,29.50,NNW,347,5.0,12.0,57,0.00,,,0.00,VWS V14.01,2013-06-04 22:14:00,
2013-06-04 15:19:00,64.9,49.3,29.50,NW,322,5.0,12.0,57,0.00,,,0.00,VWS V14.01,2013-06-04 22:19:00,
2013-06-04 15:24:00,64.3,49.2,29.50,NNW,339,10.0,12.0,58,0.00,,,0.00,VWS V14.01,2013-06-04 22:24:00,
2013-06-04 15:29:00,64.2,49.1,29.49,NNW,329,7.0,12.0,58,0.00,,,0.00,VWS V14.01,2013-06-04 22:29:00,
2013-06-04 15:30:00,68.3,48.4,29.38,NNW,338,4.0,8.0,49,0.00,,,0.00,VWS V14.01,2013-06-04 22:30:00,
2013-06-04 15:34:00,64.4,49.3,29.49,NNW,334,6.0,12.0,58,0.00,,,0.00,VWS V14.01,2013-06-04 22:34:00,
2013-06-04 15:39:00,64.3,49.2,29.49,NNW,334,8.0,12.0,58,0.00,,,0.00,VWS V14.01,2013-06-04 22:39:00,
2013-06-04 15:44:00,64.4,49.3,29.49,NNW,339,6.0,12.0,58,0.00,,,0.00,VWS V14.01,2013-06-04 22:44:00,
2013-06-04 15:49:00,64.2,49.1,29.49,NW,322,6.0,12.0,58,0.00,,,0.00,VWS V14.01,2013-06-04 22:49:00,
2013-06-04 15:54:00,64.1,49.0,29.49,NNW,338,3.0,12.0,58,0.00,,,0.00,VWS V14.01,2013-06-04 22:54:00,
2013-06-04 15:59:00,64.5,49.9,29.49,NNW,340,7.0,12.0,59,0.00,,,0.00,VWS V14.01,2013-06-04 22:59:00,
2013-06-04 16:00:00,68.8,49.4,29.38,NNW,338,4.0,7.0,50,0.00,,,0.00,VWS V14.01,2013-06-04 23:00:00,
2013-06-04 16:04:00,65.1,50.0,29.49,NNW,339,4.0,12.0,58,0.00,,,0.00,VWS V14.01,2013-06-04 23:04:00,
2013-06-04 16:09:00,65.5,49.9,29.49,NNW,333,3.0,12.0,57,0.00,,,0.00,VWS V14.01,2013-06-04 23:09:00,
2013-06-04 16:14:00,65.8,49.7,29.49,NNW,332,6.0,12.0,56,0.00,,,0.00,VWS V14.01,2013-06-04 23:14:00,
2013-06-04 16:19:00,66.0,49.9,29.49,NNW,338,3.0,12.0,56,0.00,,,0.00,VWS V14.01,2013-06-04 23:19:00,
2013-06-04 16:24:00,65.6,49.5,29.48,NNW,331,6.0,12.0,56,0.00,,,0.00,VWS V14.01,2013-06-04 23:24:00,
2013-06-04 16:29:00,65.3,49.7,29.49,NNW,345,3.0,12.0,57,0.00,,,0.00,VWS V14.01,2013-06-04 23:29:00,
2013-06-04 16:30:00,69.2,49.2,29.37,NNW,338,4.0,7.0,49,0.00,,,0.00,VWS V14.01,2013-06-04 23:30:00,
2013-06-04 16:34:00,65.1,49.0,29.48,NNW,342,4.0,12.0,56,0.00,,,0.00,VWS V14.01,2013-06-04 23:34:00,
2013-06-04 16:40:00,64.9,49.3,29.48,NNW,339,4.0,12.0,57,0.00,,,0.00,VWS V14.01,2013-06-04 23:40:00,
2013-06-04 16:45:00,64.7,48.7,29.48,NNW,340,6.0,12.0,56,0.00,,,0.00,VWS V14.01,2013-06-04 23:45:00,
2013-06-04 16:50:00,64.3,48.8,29.48,NNW,337,6.0,12.0,57,0.00,,,0.00,VWS V14.01,2013-06-04 23:50:00,
2013-06-04 16:55:00,63.9,48.8,29.48,NNW,340,6.0,12.0,58,0.00,,,0.00,VWS V14.01,2013-06-04 23:55:00,
2013-06-04 17:00:00,63.2,48.2,29.48,NW,326,3.0,12.0,58,0.00,,,0.00,VWS V14.01,2013-06-05 00:00:00,
2013-06-04 17:05:00,63.3,48.7,29.48,NNW,337,5.0,12.0,59,0.00,,,0.00,VWS V14.01,2013-06-05 00:05:00,
2013-06-04 17:10:00,63.4,48.8,29.48,NNW,342,5.0,12.0,59,0.00,,,0.00,VWS V14.01,2013-06-05 00:10:00,
2013-06-04 17:15:00,63.5,48.9,29.48,NNW,339,4.0,12.0,59,0.00,,,0.00,VWS V14.01,2013-06-05 00:15:00,
2013-06-04 17:20:00,63.9,48.8,29.48,NNW,336,4.0,12.0,58,0.00,,,0.00,VWS V14.01,2013-06-05 00:20:00,
2013-06-04 17:25:00,63.7,48.7,29.48,NNW,335,6.0,12.0,58,0.00,,,0.00,VWS V14.01,2013-06-05 00:25:00,
2013-06-04 17:30:00,63.2,48.7,29.48,NNW,336,4.0,12.0,59,0.00,,,0.00,VWS V14.01,2013-06-05 00:30:00,
2013-06-04 17:35:00,63.1,48.6,29.48,NNW,336,2.0,12.0,59,0.00,,,0.00,VWS V14.01,2013-06-05 00:35:00,
2013-06-04 17:40:00,63.1,48.6,29.48,NNW,339,5.0,12.0,59,0.00,,,0.00,VWS V14.01,2013-06-05 00:40:00,
2013-06-04 17:45:00,63.0,48.5,29.48,NNW,337,3.0,12.0,59,0.00,,,0.00,VWS V14.01,2013-06-05 00:45:00,
2013-06-04 17:50:00,62.7,48.6,29.48,NNW,336,7.0,12.0,60,0.00,,,0.00,VWS V14.01,2013-06-05 00:50:00,
2013-06-04 17:55:00,62.5,48.4,29.48,NNW,336,6.0,12.0,60,0.00,,,0.00,VWS V14.01,2013-06-05 00:55:00,
2013-06-04 18:00:00,62.9,49.3,29.48,NNW,337,4.0,12.0,61,0.00,,,0.00,VWS V14.01,2013-06-05 01:00:00,
2013-06-04 18:05:00,63.2,48.7,29.47,NNW,337,2.0,12.0,59,0.00,,,0.00,VWS V14.01,2013-06-05 01:05:00,
2013-06-04 18:10:00,62.7,48.6,29.48,NNW,337,4.0,12.0,60,0.00,,,0.00,VWS V14.01,2013-06-05 01:10:00,
2013-06-04 18:15:00,62.5,48.4,29.47,NNW,344,3.0,12.0,60,0.00,,,0.00,VWS V14.01,2013-06-05 01:15:00,
2013-06-04 18:20:00,62.4,48.3,29.47,NNW,348,1.0,12.0,60,0.00,,,0.00,VWS V14.01,2013-06-05 01:20:00,
2013-06-04 18:25:00,62.3,48.2,29.47,NNW,345,6.0,12.0,60,0.00,,,0.00,VWS V14.01,2013-06-05 01:25:00,
2013-06-04 18:30:00,61.9,48.3,29.48,NNW,345,4.0,12.0,61,0.00,,,0.00,VWS V14.01,2013-06-05 01:30:00,
2013-06-04 18:35:00,61.8,48.2,29.48,NNW,343,4.0,12.0,61,0.00,,,0.00,VWS V14.01,2013-06-05 01:35:00,
2013-06-04 18:40:00,61.5,47.9,29.47,NNW,342,3.0,12.0,61,0.00,,,0.00,VWS V14.01,2013-06-05 01:40:00,
2013-06-04 18:45:00,61.5,48.4,29.47,NNW,342,4.0,12.0,62,0.00,,,0.00,VWS V14.01,2013-06-05 01:45:00,
2013-06-04 18:50:00,61.3,48.2,29.48,NNW,341,3.0,12.0,62,0.00,,,0.00,VWS V14.01,2013-06-05 01:50:00,
2013-06-04 18:55:00,61.1,48.0,29.48,NNW,341,4.0,12.0,62,0.00,,,0.00,VWS V14.01,2013-06-05 01:55:00,
2013-06-04 19:00:00,60.8,47.7,29.47,NNW,339,5.0,12.0,62,0.00,,,0.00,VWS V14.01,2013-06-05 02:00:00,
2013-06-04 19:05:00,60.5,47.4,29.47,NNW,337,3.0,12.0,62,0.00,,,0.00,VWS V14.01,2013-06-05 02:05:00,
2013-06-04 19:10:00,60.2,47.6,29.48,NNW,336,2.0,12.0,63,0.00,,,0.00,VWS V14.01,2013-06-05 02:10:00,
2013-06-04 19:15:00,59.6,47.4,29.47,NNW,338,5.0,12.0,64,0.00,,,0.00,VWS V14.01,2013-06-05 02:15:00,
2013-06-04 19:20:00,59.3,47.5,29.48,NNW,338,3.0,12.0,65,0.00,,,0.00,VWS V14.01,2013-06-05 02:20:00,
2013-06-04 19:25:00,59.1,47.4,29.48,NNW,338,4.0,12.0,65,0.00,,,0.00,VWS V14.01,2013-06-05 02:25:00,
2013-06-04 19:30:00,59.0,47.7,29.48,NNW,338,3.0,12.0,66,0.00,,,0.00,VWS V14.01,2013-06-05 02:30:00,
2013-06-04 19:35:00,58.7,47.4,29.48,NNW,338,3.0,12.0,66,0.00,,,0.00,VWS V14.01,2013-06-05 02:35:00,
2013-06-04 19:40:00,58.5,47.2,29.48,NNW,338,3.0,12.0,66,0.00,,,0.00,VWS V14.01,2013-06-05 02:40:00,
2013-06-04 19:45:00,58.3,47.0,29.48,NNW,339,3.0,12.0,66,0.00,,,0.00,VWS V14.01,2013-06-05 02:45:00,
2013-06-04 19:50:00,57.8,46.9,29.48,NNW,339,3.0,12.0,67,0.00,,,0.00,VWS V14.01,2013-06-05 02:50:00,
2013-06-04 19:55:00,57.4,46.9,29.48,NNW,339,2.0,12.0,68,0.00,,,0.00,VWS V14.01,2013-06-05 02:55:00,
2013-06-04 20:00:00,56.9,46.8,29.48,NNW,347,5.0,12.0,69,0.00,,,0.00,VWS V14.01,2013-06-05 03:00:00,
2013-06-04 20:05:00,56.6,46.9,29.48,NNW,346,2.0,12.0,70,0.00,,,0.00,VWS V14.01,2013-06-05 03:05:00,
2013-06-04 20:10:00,56.3,46.7,29.48,NNW,347,2.0,12.0,70,0.00,,,0.00,VWS V14.01,2013-06-05 03:10:00,
2013-06-04 20:15:00,56.1,46.8,29.48,NNW,346,1.0,12.0,71,0.00,,,0.00,VWS V14.01,2013-06-05 03:15:00,
2013-06-04 20:20:00,55.8,46.5,29.49,NNW,347,2.0,12.0,71,0.00,,,0.00,VWS V14.01,2013-06-05 03:20:00,
2013-06-04 20:25:00,55.6,46.7,29.48,NNW,347,1.0,12.0,72,0.00,,,0.00,VWS V14.01,2013-06-05 03:25:00,
2013-06-04 20:30:00,55.3,46.8,29.48,NNW,346,2.0,12.0,73,0.00,,,0.00,VWS V14.01,2013-06-05 03:30:00,
2013-06-04 20:35:00,55.2,46.7,29.49,NNW,346,3.0,12.0,73,0.00,,,0.00,VWS V14.01,2013-06-05 03:35:00,
2013-06-04 20:40:00,54.9,46.4,29.48,NNW,346,3.0,12.0,73,0.00,,,0.00,VWS V14.01,2013-06-05 03:40:00,
2013-06-04 20:45:00,54.8,46.3,29.49,NNW,346,3.0,12.0,73,0.00,,,0.00,VWS V14.01,2013-06-05 03:45:00,
2013-06-04 20:50:00,54.6,46.1,29.49,NNW,346,0.0,12.0,73,0.00,,,0.00,VWS V14.01,2013-06-05 03:50:00,
2013-06-04 20:55:00,54.5,46.4,29.49,NNW,346,1.0,12.0,74,0.00,,,0.00,VWS V14.01,2013-06-05 03:55:00,
2013-06-04 21:00:00,54.4,46.3,29.49,NNW,346,2.0,12.0,74,0.00,,,0.00,VWS V14.01,2013-06-05 04:00:00,
2013-06-04 21:05:00,54.3,46.2,29.49,NNW,346,1.0,12.0,74,0.00,,,0.00,VWS V14.01,2013-06-05 04:05:00,
2013-06-04 21:10:00,54.2,46.1,29.50,NNW,346,2.0,12.0,74,0.00,,,0.00,VWS V14.01,2013-06-05 04:10:00,
2013-06-04 21:15:00,54.1,46.4,29.49,NNW,346,1.0,12.0,75,0.00,,,0.00,VWS V14.01,2013-06-05 04:15:00,
2013-06-04 21:20:00,54.0,46.3,29.50,NNW,346,2.0,12.0,75,0.00,,,0.00,VWS V14.01,2013-06-05 04:20:00,
2013-06-04 21:25:00,53.9,46.5,29.50,NNW,346,4.0,12.0,76,0.00,,,0.00,VWS V14.01,2013-06-05 04:25:00,
2013-06-04 21:30:00,53.8,46.4,29.50,NNW,346,3.0,12.0,76,0.00,,,0.00,VWS V14.01,2013-06-05 04:30:00,
2013-06-04 21:35:00,53.8,46.4,29.50,NNW,346,3.0,12.0,76,0.00,,,0.00,VWS V14.01,2013-06-05 04:35:00,
2013-06-04 21:40:00,53.8,46.4,29.51,NNW,346,1.0,12.0,76,0.00,,,0.00,VWS V14.01,2013-06-05 04:40:00,
2013-06-04 21:45:00,53.7,46.3,29.51,NNW,346,3.0,12.0,76,0.00,,,0.00,VWS V14.01,2013-06-05 04:45:00,
2013-06-04 21:50:00,53.6,46.6,29.51,NNW,346,1.0,12.0,77,0.00,,,0.00,VWS V14.01,2013-06-05 04:50:00,
2013-06-04 21:55:00,53.5,46.5,29.51,NNW,346,3.0,12.0,77,0.00,,,0.00,VWS V14.01,2013-06-05 04:55:00,
2013-06-04 22:00:00,53.4,46.4,29.51,NNW,346,3.0,12.0,77,0.00,,,0.00,VWS V14.01,2013-06-05 05:00:00,
2013-06-04 22:05:00,53.4,46.4,29.51,NNW,346,1.0,12.0,77,0.00,,,0.00,VWS V14.01,2013-06-05 05:05:00,
2013-06-04 22:10:00,53.3,46.3,29.51,NNW,346,4.0,12.0,77,0.00,,,0.00,VWS V14.01,2013-06-05 05:10:00,
2013-06-04 22:15:00,53.3,46.6,29.51,NNW,346,3.0,12.0,78,0.00,,,0.00,VWS V14.01,2013-06-05 05:15:00,
2013-06-04 22:20:00,53.2,46.2,29.52,NNW,346,1.0,12.0,77,0.00,,,0.00,VWS V14.01,2013-06-05 05:20:00,
2013-06-04 22:25:00,53.2,46.5,29.52,NNW,346,0.0,12.0,78,0.00,,,0.00,VWS V14.01,2013-06-05 05:25:00,
2013-06-04 22:30:00,53.0,46.3,29.52,NNW,346,1.0,12.0,78,0.00,,,0.00,VWS V14.01,2013-06-05 05:30:00,
2013-06-04 22:35:00,53.0,46.3,29.52,NNW,347,4.0,12.0,78,0.00,,,0.00,VWS V14.01,2013-06-05 05:35:00,
2013-06-04 22:40:00,53.0,46.3,29.52,NNW,347,1.0,12.0,78,0.00,,,0.00,VWS V14.01,2013-06-05 05:40:00,
2013-06-04 22:45:00,53.1,46.4,29.52,NNW,347,3.0,12.0,78,0.00,,,0.00,VWS V14.01,2013-06-05 05:45:00,
2013-06-04 22:50:00,53.1,46.4,29.52,NNW,347,2.0,12.0,78,0.00,,,0.00,VWS V14.01,2013-06-05 05:50:00,
2013-06-04 22:55:00,53.1,46.4,29.52,NNW,347,1.0,12.0,78,0.00,,,0.00,VWS V14.01,2013-06-05 05:55:00,
2013-06-04 23:00:00,53.1,46.4,29.52,NNW,347,2.0,12.0,78,0.00,,,0.00,VWS V14.01,2013-06-05 06:00:00,
2013-06-04 23:05:00,53.1,46.4,29.53,NNW,347,2.0,12.0,78,0.00,,,0.00,VWS V14.01,2013-06-05 06:05:00,
2013-06-04 23:10:00,53.2,46.5,29.53,NNW,347,2.0,12.0,78,0.00,,,0.00,VWS V14.01,2013-06-05 06:10:00,
2013-06-04 23:15:00,53.2,46.5,29.53,NNW,347,3.0,12.0,78,0.00,,,0.00,VWS V14.01,2013-06-05 06:15:00,
2013-06-04 23:20:00,53.2,46.5,29.53,NNW,347,2.0,12.0,78,0.00,,,0.00,VWS V14.01,2013-06-05 06:20:00,
2013-06-04 23:25:00,53.2,46.5,29.52,NNW,347,3.0,12.0,78,0.00,,,0.00,VWS V14.01,2013-06-05 06:25:00,
2013-06-04 23:30:00,53.2,46.5,29.52,NNW,347,1.0,12.0,78,0.00,,,0.00,VWS V14.01,2013-06-05 06:30:00,
2013-06-04 23:35:00,53.2,46.5,29.53,NNW,347,3.0,12.0,78,0.00,,,0.00,VWS V14.01,2013-06-05 06:35:00,
2013-06-04 23:40:00,53.2,46.5,29.53,NNW,347,3.0,12.0,78,0.00,,,0.00,VWS V14.01,2013-06-05 06:40:00,
2013-06-04 23:45:00,53.2,46.5,29.53,NNW,347,2.0,12.0,78,0.00,,,0.00,VWS V14.01,2013-06-05 06:45:00,
2013-06-04 23:50:00,53.3,46.6,29.53,NNW,347,2.0,12.0,78,0.00,,,0.00,VWS V14.01,2013-06-05 06:50:00,
2013-06-04 23:55:00,53.3,46.6,29.53,NNW,347,2.0,12.0,78,0.00,,,0.00,VWS V14.01,2013-06-05 06:55:00,